Time;durP1;ratioP1;P1;durP2;ratioP2;P2;SDS_P1;SDS_P2;PMS_P1;PMS_P2;Temp;Humidity;BMP_temperature;BMP_pressure;BME280_temperature;BME280_humidity;BME280_pressure;Samples;Min_cycle;Max_cycle;Signal;HPM_P1;HPM_P2
2024/01/16 00:01:11;;;;;;;5.82;1.90;;;0.10;99.90;;;;;;4984678;28;20061;-36
2024/01/16 00:03:38;;;;;;;4.25;1.20;;;0.20;99.90;;;;;;4985394;28;20109;-36
2024/01/16 00:06:04;;;;;;;5.18;1.58;;;0.20;99.90;;;;;;4985236;28;20057;-34
2024/01/16 00:08:29;;;;;;;6.05;1.27;;;0.20;99.90;;;;;;4983666;28;20061;-35
2024/01/16 00:10:55;;;;;;;4.60;1.13;;;0.30;99.90;;;;;;4987768;28;20142;-36
2024/01/16 00:13:21;;;;;;;8.07;1.50;;;0.30;99.90;;;;;;4986113;28;20145;-34
2024/01/16 00:15:46;;;;;;;8.63;1.27;;;0.40;99.90;;;;;;4982076;28;20073;-35
2024/01/16 00:18:12;;;;;;;4.88;1.92;;;0.40;99.90;;;;;;4978540;28;20054;-36
2024/01/16 00:20:38;;;;;;;7.03;1.45;;;0.40;99.90;;;;;;4984508;28;20078;-36
2024/01/16 00:23:04;;;;;;;5.93;1.42;;;0.30;99.90;;;;;;4985174;28;20084;-36
2024/01/16 00:25:29;;;;;;;5.45;1.50;;;0.20;99.90;;;;;;4987092;28;20066;-35
2024/01/16 00:27:55;;;;;;;6.95;1.42;;;0.10;99.90;;;;;;4989473;28;20085;-36
2024/01/16 00:30:21;;;;;;;4.50;1.40;;;0.10;99.90;;;;;;4982557;28;20561;-36
2024/01/16 00:32:46;;;;;;;2.67;1.55;;;0.00;99.90;;;;;;4984520;28;20042;-35
2024/01/16 00:35:12;;;;;;;4.32;1.60;;;0.00;99.90;;;;;;4981528;28;20459;-35
2024/01/16 00:37:39;;;;;;;5.30;1.85;;;-0.10;99.90;;;;;;4980984;28;20466;-34
2024/01/16 00:40:08;;;;;;;4.80;2.30;;;-0.10;99.90;;;;;;4984265;28;20054;-34
2024/01/16 00:42:34;;;;;;;4.75;1.77;;;-0.10;99.90;;;;;;4981901;28;20065;-37
2024/01/16 00:45:00;;;;;;;4.25;1.83;;;-0.20;99.90;;;;;;4962555;28;20430;-34
2024/01/16 00:47:28;;;;;;;6.43;1.98;;;-0.10;99.90;;;;;;4976472;28;20505;-34
2024/01/16 00:49:54;;;;;;;6.43;2.55;;;-0.20;99.90;;;;;;4966685;28;20477;-35
2024/01/16 00:52:22;;;;;;;4.22;2.17;;;-0.10;99.90;;;;;;4987078;28;20057;-35
2024/01/16 00:54:48;;;;;;;4.30;2.50;;;-0.10;99.90;;;;;;4985800;28;20058;-34
2024/01/16 00:57:16;;;;;;;5.97;3.25;;;-0.20;99.90;;;;;;4984064;28;20055;-35
2024/01/16 00:59:41;;;;;;;4.88;3.00;;;-0.20;99.90;;;;;;4989178;28;20042;-34
2024/01/16 01:02:09;;;;;;;7.47;4.03;;;-0.20;99.90;;;;;;4983977;28;20415;-35
2024/01/16 01:04:35;;;;;;;5.47;4.43;;;-0.30;99.90;;;;;;4984001;28;20054;-35
2024/01/16 01:07:01;;;;;;;5.47;5.07;;;-0.30;99.90;;;;;;4986305;28;20054;-34
2024/01/16 01:09:26;;;;;;;7.00;4.68;;;-0.40;99.90;;;;;;4988296;28;20126;-36
2024/01/16 01:11:52;;;;;;;5.15;4.13;;;-0.40;99.90;;;;;;4971434;28;20046;-35
2024/01/16 01:14:18;;;;;;;6.75;6.10;;;-0.50;99.90;;;;;;4983832;28;20053;-35
2024/01/16 01:16:43;;;;;;;7.72;5.63;;;-0.50;99.90;;;;;;4974919;28;20057;-36
2024/01/16 01:19:09;;;;;;;7.28;6.57;;;-0.50;99.90;;;;;;4965557;28;20105;-35
2024/01/16 01:21:35;;;;;;;7.65;6.30;;;-0.50;99.90;;;;;;4982442;28;20062;-36
2024/01/16 01:24:01;;;;;;;8.82;6.95;;;-0.60;99.90;;;;;;4988387;28;20149;-35
2024/01/16 01:26:27;;;;;;;10.70;9.98;;;-0.50;99.90;;;;;;4985882;28;20133;-35
2024/01/16 01:28:52;;;;;;;10.68;8.18;;;-0.50;99.90;;;;;;4986269;28;20496;-35
2024/01/16 01:31:18;;;;;;;9.65;8.95;;;-0.60;99.90;;;;;;4987078;28;20092;-36
2024/01/16 01:33:44;;;;;;;10.30;9.20;;;-0.60;99.90;;;;;;4985321;28;20077;-36
2024/01/16 01:36:10;;;;;;;10.95;10.02;;;-0.70;99.90;;;;;;4985697;28;20050;-35
2024/01/16 01:38:35;;;;;;;11.98;10.98;;;-0.60;99.90;;;;;;4985110;28;20603;-34
2024/01/16 01:41:01;;;;;;;10.52;9.48;;;-0.70;99.90;;;;;;4984642;28;20153;-35
2024/01/16 01:43:27;;;;;;;9.70;8.85;;;-0.70;99.90;;;;;;4986398;28;20447;-34
2024/01/16 01:46:20;;;;;;;10.48;9.68;;;-0.80;99.90;;;;;;4984507;28;20053;-34
2024/01/16 01:48:50;;;;;;;12.60;11.55;;;-0.80;99.90;;;;;;4984322;28;20058;-35
2024/01/16 01:51:18;;;;;;;14.07;12.85;;;-0.80;99.90;;;;;;4986436;28;20057;-34
2024/01/16 01:53:46;;;;;;;11.85;10.90;;;-0.70;99.90;;;;;;4970018;28;20500;-34
2024/01/16 01:56:15;;;;;;;19.92;18.38;;;-0.70;99.90;;;;;;4985544;28;20050;-35
2024/01/16 01:58:44;;;;;;;16.17;14.93;;;-0.60;99.90;;;;;;4968692;28;20133;-34
2024/01/16 02:01:11;;;;;;;18.75;17.50;;;-0.50;99.90;;;;;;4971705;28;20467;-34
2024/01/16 02:03:44;;;;;;;16.10;14.95;;;-0.40;99.90;;;;;;4984627;28;20544;-34
2024/01/16 02:06:12;;;;;;;13.73;12.45;;;-0.40;99.90;;;;;;4985262;28;20054;-34
2024/01/16 02:08:39;;;;;;;16.02;14.75;;;-0.40;99.90;;;;;;4990298;28;20073;-34
2024/01/16 02:11:05;;;;;;;14.30;13.15;;;-0.30;99.90;;;;;;4983612;28;20843;-34
2024/01/16 02:13:31;;;;;;;15.48;14.38;;;-0.30;99.90;;;;;;4984097;28;20089;-34
2024/01/16 02:15:57;;;;;;;19.02;17.90;;;-0.40;99.90;;;;;;4982377;28;20483;-34
2024/01/16 02:18:26;;;;;;;16.00;14.65;;;-0.40;99.90;;;;;;4985668;28;20065;-34
2024/01/16 02:20:52;;;;;;;22.17;20.65;;;-0.40;99.90;;;;;;4990379;28;20057;-34
2024/01/16 02:23:26;;;;;;;22.80;21.45;;;-0.40;99.90;;;;;;4985694;28;20404;-34
2024/01/16 02:25:52;;;;;;;17.25;16.02;;;-0.40;99.90;;;;;;4985015;28;20500;-35
2024/01/16 02:28:18;;;;;;;16.75;15.50;;;-0.40;99.90;;;;;;4988550;28;20054;-35
2024/01/16 02:30:44;;;;;;;16.88;15.80;;;-0.50;99.90;;;;;;4986059;28;20647;-34
2024/01/16 02:33:09;;;;;;;16.05;14.50;;;-0.50;99.90;;;;;;4984877;28;20050;-34
2024/01/16 02:35:35;;;;;;;12.57;11.45;;;-0.50;99.90;;;;;;4984455;28;20133;-34
2024/01/16 02:38:01;;;;;;;15.80;14.32;;;-0.40;99.90;;;;;;4969349;28;20051;-34
2024/01/16 02:40:26;;;;;;;14.88;13.80;;;-0.40;99.90;;;;;;4982586;28;20408;-34
2024/01/16 02:42:52;;;;;;;14.95;13.98;;;-0.50;99.90;;;;;;4988137;28;20044;-34
2024/01/16 02:45:18;;;;;;;11.93;10.73;;;-0.40;99.90;;;;;;4982213;28;20057;-34
2024/01/16 02:47:44;;;;;;;11.65;10.68;;;-0.40;99.90;;;;;;4984323;28;20038;-35
2024/01/16 02:50:10;;;;;;;9.95;9.13;;;-0.40;99.90;;;;;;4985260;28;20054;-34
2024/01/16 02:52:36;;;;;;;13.65;12.82;;;-0.30;99.90;;;;;;4980955;28;20050;-33
2024/01/16 02:55:02;;;;;;;13.20;12.05;;;-0.40;99.90;;;;;;4984746;28;20527;-33
2024/01/16 02:57:27;;;;;;;15.32;14.18;;;-0.40;99.90;;;;;;4981081;28;20056;-33
2024/01/16 02:59:53;;;;;;;15.88;14.57;;;-0.50;99.90;;;;;;4982358;28;20046;-34
2024/01/16 03:02:19;;;;;;;11.13;9.02;;;-0.50;99.90;;;;;;4966487;28;20093;-33
2024/01/16 03:04:44;;;;;;;10.73;9.55;;;-0.60;99.90;;;;;;4979891;28;20047;-32
2024/01/16 03:07:10;;;;;;;10.30;9.10;;;-0.60;99.90;;;;;;4983116;28;20381;-32
2024/01/16 03:09:36;;;;;;;11.20;10.38;;;-0.60;99.90;;;;;;4983806;28;20208;-33
2024/01/16 03:12:02;;;;;;;8.27;7.50;;;-0.60;99.90;;;;;;4979452;28;20042;-32
2024/01/16 03:14:33;;;;;;;8.85;8.15;;;-0.60;99.90;;;;;;4984156;28;20089;-32
2024/01/16 03:17:00;;;;;;;13.05;12.02;;;-0.70;99.90;;;;;;4981716;28;20038;-32
2024/01/16 03:19:26;;;;;;;11.50;10.48;;;-0.60;99.90;;;;;;4981826;28;20082;-32
2024/01/16 03:21:52;;;;;;;10.02;9.15;;;-0.60;99.90;;;;;;4985671;28;20058;-34
2024/01/16 03:24:18;;;;;;;9.27;8.68;;;-0.60;99.90;;;;;;4983587;28;20194;-34
2024/01/16 03:26:43;;;;;;;9.57;8.95;;;-0.60;99.90;;;;;;4983371;28;20082;-33
2024/01/16 03:29:11;;;;;;;10.90;9.90;;;-0.60;99.90;;;;;;4981558;28;20077;-33
2024/01/16 03:31:36;;;;;;;9.20;8.40;;;-0.60;99.90;;;;;;4984591;28;20125;-33
2024/01/16 03:34:02;;;;;;;6.90;6.20;;;-0.60;99.90;;;;;;4983578;28;20781;-33
2024/01/16 03:36:28;;;;;;;6.03;5.47;;;-0.70;99.90;;;;;;4972557;28;20046;-33
2024/01/16 03:38:54;;;;;;;8.55;7.78;;;-0.70;99.90;;;;;;4966335;28;20062;-33
2024/01/16 03:41:19;;;;;;;8.63;6.88;;;-0.80;99.90;;;;;;4984973;28;20058;-33
2024/01/16 03:43:45;;;;;;;9.30;7.20;;;-0.80;99.90;;;;;;4986524;28;20540;-33
2024/01/16 03:46:11;;;;;;;6.30;5.68;;;-0.80;99.90;;;;;;4985061;28;20061;-33
2024/01/16 03:48:37;;;;;;;9.57;6.45;;;-0.80;99.90;;;;;;4965905;28;20054;-33
2024/01/16 03:51:03;;;;;;;6.97;6.07;;;-0.80;99.90;;;;;;4965747;28;20057;-33
2024/01/16 03:53:28;;;;;;;6.40;5.70;;;-0.80;99.90;;;;;;4982508;28;20046;-33
2024/01/16 03:55:55;;;;;;;12.40;8.75;;;-0.80;99.90;;;;;;4982309;28;20050;-33
2024/01/16 03:58:22;;;;;;;7.38;6.70;;;-0.90;99.90;;;;;;4980901;28;20058;-34
2024/01/16 04:00:50;;;;;;;8.73;6.93;;;-0.80;99.90;;;;;;4981646;28;20058;-33
2024/01/16 04:03:17;;;;;;;6.75;6.13;;;-0.80;99.90;;;;;;4980848;28;20054;-33
2024/01/16 04:05:42;;;;;;;7.93;7.15;;;-0.80;99.90;;;;;;4966104;28;20050;-33
2024/01/16 04:08:08;;;;;;;8.25;6.35;;;-0.70;99.90;;;;;;4981365;28;20042;-33
2024/01/16 04:10:34;;;;;;;6.97;5.03;;;-0.70;99.90;;;;;;4983733;28;20530;-33
2024/01/16 04:13:03;;;;;;;7.78;7.13;;;-0.70;99.90;;;;;;4981997;28;20145;-33
2024/01/16 04:15:28;;;;;;;6.40;5.97;;;-0.70;99.90;;;;;;4984017;28;20465;-33
2024/01/16 04:17:54;;;;;;;8.88;8.07;;;-0.70;99.90;;;;;;4982931;28;20058;-33
2024/01/16 04:20:21;;;;;;;6.60;5.90;;;-0.70;99.90;;;;;;4990063;28;20101;-33
2024/01/16 04:22:46;;;;;;;8.48;7.65;;;-0.60;99.90;;;;;;4962398;28;20051;-33
2024/01/16 04:25:12;;;;;;;8.98;5.88;;;-0.70;99.90;;;;;;4940205;28;1084728;-33
2024/01/16 04:27:38;;;;;;;7.43;6.10;;;-0.60;99.90;;;;;;4985102;28;20039;-33
2024/01/16 04:30:05;;;;;;;6.70;5.50;;;-0.60;99.90;;;;;;4979224;28;20468;-33
2024/01/16 04:32:30;;;;;;;8.65;7.80;;;-0.60;99.90;;;;;;4984277;28;20058;-33
2024/01/16 04:34:56;;;;;;;9.02;7.35;;;-0.60;99.90;;;;;;4984516;28;20488;-33
2024/01/16 04:37:22;;;;;;;11.52;6.57;;;-0.50;99.90;;;;;;4991407;28;20064;-33
2024/01/16 04:39:47;;;;;;;7.18;6.57;;;-0.50;99.90;;;;;;4984827;28;20059;-33
2024/01/16 04:42:13;;;;;;;7.50;6.55;;;-0.50;99.90;;;;;;4986899;28;20057;-33
2024/01/16 04:44:39;;;;;;;12.38;8.43;;;-0.40;99.90;;;;;;4987654;28;20579;-33
2024/01/16 04:47:05;;;;;;;9.18;5.10;;;-0.40;99.90;;;;;;4983077;28;20506;-33
2024/01/16 04:49:30;;;;;;;7.78;6.72;;;-0.30;99.90;;;;;;4987760;28;20997;-33
2024/01/16 04:51:56;;;;;;;10.15;6.85;;;-0.30;99.90;;;;;;4986948;28;20096;-33
2024/01/16 04:54:22;;;;;;;7.20;6.50;;;-0.30;99.90;;;;;;4970258;28;20042;-33
2024/01/16 04:56:48;;;;;;;7.93;6.57;;;-0.30;99.90;;;;;;4987489;28;20100;-34
2024/01/16 04:59:13;;;;;;;5.90;5.35;;;-0.40;99.90;;;;;;4986837;28;20086;-33
2024/01/16 05:01:39;;;;;;;7.13;6.45;;;-0.40;99.90;;;;;;4971672;28;20066;-33
2024/01/16 05:04:07;;;;;;;5.47;3.83;;;-0.40;99.90;;;;;;4984851;28;20519;-33
2024/01/16 05:06:34;;;;;;;6.90;4.70;;;-0.40;99.90;;;;;;4983459;28;20058;-33
2024/01/16 05:09:00;;;;;;;7.47;5.03;;;-0.40;99.90;;;;;;4987084;28;20144;-33
2024/01/16 05:11:25;;;;;;;6.53;5.20;;;-0.50;99.90;;;;;;4967960;28;20111;-33
2024/01/16 05:13:57;;;;;;;8.02;6.93;;;-0.50;99.90;;;;;;4986963;28;20058;-33
2024/01/16 05:16:26;;;;;;;8.40;7.57;;;-0.50;99.90;;;;;;4983387;28;20046;-33
2024/01/16 05:18:55;;;;;;;8.05;6.63;;;-0.50;99.90;;;;;;4988410;28;20526;-34
2024/01/16 05:21:20;;;;;;;5.47;5.05;;;-0.60;99.90;;;;;;4983753;28;20066;-34
2024/01/16 05:23:46;;;;;;;8.48;7.78;;;-0.60;99.90;;;;;;4982879;28;20046;-33
2024/01/16 05:26:12;;;;;;;8.38;6.78;;;-0.60;99.90;;;;;;4965521;28;20483;-33
2024/01/16 05:28:41;;;;;;;8.52;7.68;;;-0.60;99.90;;;;;;4964288;28;20065;-33
2024/01/16 05:31:07;;;;;;;6.93;6.20;;;-0.60;99.90;;;;;;4967093;28;20061;-34
2024/01/16 05:33:33;;;;;;;6.20;5.70;;;-0.60;99.90;;;;;;4949531;28;20053;-34
2024/01/16 05:35:58;;;;;;;12.77;11.75;;;-0.60;99.90;;;;;;4968497;28;20038;-34
2024/01/16 05:38:24;;;;;;;11.43;10.50;;;-0.70;99.90;;;;;;4965503;28;20065;-34
2024/01/16 05:40:50;;;;;;;11.95;10.77;;;-0.60;99.90;;;;;;4969882;28;20408;-34
2024/01/16 05:43:15;;;;;;;10.95;10.25;;;-0.60;99.90;;;;;;4970738;28;20109;-34
2024/01/16 05:45:41;;;;;;;12.60;11.50;;;-0.60;99.90;;;;;;4963229;28;20115;-32
2024/01/16 05:48:08;;;;;;;10.85;9.98;;;-0.60;99.90;;;;;;4965059;28;20066;-33
2024/01/16 05:50:34;;;;;;;12.60;11.57;;;-0.50;99.90;;;;;;4972004;28;20168;-33
2024/01/16 05:53:00;;;;;;;14.38;13.05;;;-0.60;99.90;;;;;;4962872;28;20058;-33
2024/01/16 05:55:26;;;;;;;11.95;11.05;;;-0.50;99.90;;;;;;4970910;28;20455;-34
2024/01/16 05:57:52;;;;;;;18.30;16.88;;;-0.40;99.90;;;;;;4967871;28;20133;-35
2024/01/16 06:00:18;;;;;;;18.52;17.20;;;-0.50;99.90;;;;;;4963298;28;20051;-34
2024/01/16 06:02:44;;;;;;;20.08;18.98;;;-0.50;99.90;;;;;;4951556;28;20510;-33
2024/01/16 06:05:10;;;;;;;19.02;17.73;;;-0.50;99.90;;;;;;4966095;28;20646;-33
2024/01/16 06:07:36;;;;;;;16.77;15.65;;;-0.40;99.90;;;;;;4967722;28;20050;-33
2024/01/16 06:10:01;;;;;;;17.55;16.27;;;-0.40;99.90;;;;;;4965131;28;20397;-34
2024/01/16 06:12:27;;;;;;;14.30;13.30;;;-0.40;99.90;;;;;;4964608;28;20122;-34
2024/01/16 06:14:53;;;;;;;17.48;16.48;;;-0.40;99.90;;;;;;4965717;28;20488;-33
2024/01/16 06:17:18;;;;;;;17.63;16.20;;;-0.30;99.90;;;;;;4966681;28;20355;-34
2024/01/16 06:19:44;;;;;;;18.85;17.50;;;-0.40;99.90;;;;;;4966933;28;20061;-34
2024/01/16 06:22:11;;;;;;;19.33;18.10;;;-0.30;99.90;;;;;;4964607;28;20517;-34
2024/01/16 06:24:36;;;;;;;15.45;14.35;;;-0.40;99.90;;;;;;4983058;28;20542;-33
2024/01/16 06:27:05;;;;;;;20.48;19.00;;;-0.30;99.90;;;;;;4988114;28;20054;-33
2024/01/16 06:29:31;;;;;;;18.75;17.33;;;-0.40;99.90;;;;;;4987174;28;20050;-33
2024/01/16 06:31:56;;;;;;;21.20;19.80;;;-0.50;99.90;;;;;;4986645;28;20420;-33
2024/01/16 06:34:22;;;;;;;23.13;21.58;;;-0.40;99.90;;;;;;4985146;28;20081;-33
2024/01/16 06:36:48;;;;;;;23.13;21.65;;;-0.40;99.90;;;;;;4989441;28;20057;-33
2024/01/16 06:39:14;;;;;;;24.55;22.85;;;-0.40;99.90;;;;;;4982618;28;20066;-33
2024/01/16 06:41:41;;;;;;;20.30;18.70;;;-0.40;99.90;;;;;;4987105;28;20121;-33
2024/01/16 06:44:07;;;;;;;26.65;25.17;;;-0.40;99.90;;;;;;4986685;28;20499;-33
2024/01/16 06:46:32;;;;;;;27.70;25.67;;;-0.40;99.90;;;;;;4986454;28;20046;-33
2024/01/16 06:48:58;;;;;;;23.90;22.40;;;-0.40;99.90;;;;;;4984806;28;20384;-33
2024/01/16 06:51:24;;;;;;;27.00;25.23;;;-0.40;99.90;;;;;;4981397;28;20405;-34
2024/01/16 06:53:49;;;;;;;26.52;24.98;;;-0.30;99.90;;;;;;4984413;28;20129;-34
2024/01/16 06:56:15;;;;;;;20.05;18.58;;;-0.40;99.90;;;;;;4965872;28;20050;-33
2024/01/16 06:58:41;;;;;;;18.75;17.35;;;-0.40;99.90;;;;;;4983954;28;20459;-33
2024/01/16 07:01:08;;;;;;;20.63;19.25;;;-0.40;99.90;;;;;;4981437;28;20061;-33
2024/01/16 07:03:34;;;;;;;22.42;20.88;;;-0.50;99.90;;;;;;4981483;28;20061;-33
2024/01/16 07:06:00;;;;;;;20.17;18.85;;;-0.40;99.90;;;;;;4981023;28;20428;-34
2024/01/16 07:08:26;;;;;;;22.17;20.48;;;-0.40;99.90;;;;;;4980599;28;20389;-34
2024/01/16 07:10:51;;;;;;;19.83;18.17;;;-0.40;99.90;;;;;;4986397;28;20050;-33
2024/01/16 07:13:18;;;;;;;22.25;20.85;;;-0.40;99.90;;;;;;4982382;28;20136;-34
2024/01/16 07:15:43;;;;;;;18.13;16.83;;;-0.40;99.90;;;;;;4988191;28;20527;-32
2024/01/16 07:18:09;;;;;;;14.98;13.90;;;-0.40;99.90;;;;;;4979119;28;20051;-32
2024/01/16 07:20:35;;;;;;;20.63;19.27;;;-0.30;99.90;;;;;;4987688;28;20149;-34
2024/01/16 07:23:01;;;;;;;15.43;14.18;;;-0.40;99.90;;;;;;4958268;28;20549;-32
2024/01/16 07:25:27;;;;;;;13.07;11.25;;;-0.30;99.90;;;;;;4981624;28;20050;-32
2024/01/16 07:27:52;;;;;;;17.80;16.58;;;-0.20;99.90;;;;;;4987886;28;20050;-32
2024/01/16 07:30:18;;;;;;;15.18;13.85;;;-0.20;99.90;;;;;;4982044;28;21312;-33
2024/01/16 07:32:44;;;;;;;12.98;11.82;;;-0.20;99.90;;;;;;4983634;28;20050;-34
2024/01/16 07:35:09;;;;;;;17.83;16.65;;;-0.20;99.90;;;;;;4982766;28;20054;-33
2024/01/16 07:37:35;;;;;;;13.43;12.27;;;-0.10;99.90;;;;;;4984480;28;20137;-34
2024/01/16 07:40:01;;;;;;;11.73;10.65;;;-0.10;99.90;;;;;;4983147;28;20042;-33
2024/01/16 07:42:33;;;;;;;13.10;12.00;;;-0.10;99.90;;;;;;4983630;28;20111;-33
2024/01/16 07:45:00;;;;;;;19.65;18.17;;;-0.10;99.90;;;;;;4983986;28;20054;-34
2024/01/16 07:47:26;;;;;;;14.75;13.57;;;-0.10;99.90;;;;;;4981826;28;20042;-34
2024/01/16 07:49:52;;;;;;;12.90;11.60;;;0.00;99.90;;;;;;4982379;28;20058;-34
2024/01/16 07:52:17;;;;;;;15.02;13.40;;;0.00;99.90;;;;;;4985041;28;20511;-33
2024/01/16 07:54:43;;;;;;;13.18;11.93;;;0.10;99.90;;;;;;4986571;28;20061;-34
2024/01/16 07:57:09;;;;;;;14.40;12.25;;;0.10;99.90;;;;;;4984361;28;20514;-33
2024/01/16 07:59:34;;;;;;;16.55;11.32;;;0.00;99.90;;;;;;4981481;28;20157;-34
2024/01/16 08:02:00;;;;;;;10.38;9.23;;;0.10;99.90;;;;;;4985123;28;20069;-34
2024/01/16 08:04:26;;;;;;;13.98;9.05;;;0.10;99.90;;;;;;4987099;28;20061;-34
2024/01/16 08:06:52;;;;;;;12.88;10.27;;;0.10;99.90;;;;;;4984270;28;20054;-34
2024/01/16 08:09:19;;;;;;;11.15;10.07;;;0.10;99.90;;;;;;4949432;28;20096;-33
2024/01/16 08:11:44;;;;;;;14.55;10.23;;;0.10;99.90;;;;;;4972181;28;20050;-33
2024/01/16 08:14:10;;;;;;;16.15;9.93;;;0.10;99.90;;;;;;4985648;28;20124;-33
2024/01/16 08:16:36;;;;;;;17.58;10.05;;;0.10;99.90;;;;;;4989685;28;20109;-33
2024/01/16 08:19:03;;;;;;;12.30;7.90;;;0.10;99.90;;;;;;4984435;28;20058;-32
2024/01/16 08:21:29;;;;;;;18.38;10.88;;;0.10;99.90;;;;;;4983524;28;20054;-33
2024/01/16 08:23:54;;;;;;;17.60;14.27;;;0.10;99.90;;;;;;4989635;28;20053;-33
2024/01/16 08:26:20;;;;;;;19.17;10.65;;;0.10;99.90;;;;;;4983183;28;20177;-33
2024/01/16 08:28:46;;;;;;;12.60;7.95;;;0.20;99.90;;;;;;4985333;28;20045;-33
2024/01/16 08:31:11;;;;;;;12.40;7.47;;;0.20;99.90;;;;;;4984683;28;20050;-32
2024/01/16 08:33:37;;;;;;;14.90;6.90;;;0.20;99.90;;;;;;4985492;28;20039;-33
2024/01/16 08:36:04;;;;;;;12.10;7.93;;;0.20;99.90;;;;;;4983633;28;20056;-32
2024/01/16 08:38:29;;;;;;;11.02;7.88;;;0.30;99.90;;;;;;4986360;28;20050;-33
2024/01/16 08:40:55;;;;;;;12.38;7.60;;;0.30;99.90;;;;;;4986141;28;20154;-34
2024/01/16 08:43:22;;;;;;;11.18;7.07;;;0.30;99.90;;;;;;4981851;28;20058;-33
2024/01/16 08:45:47;;;;;;;10.05;8.98;;;0.30;99.90;;;;;;4984396;28;20050;-33
2024/01/16 08:48:14;;;;;;;10.43;6.93;;;0.20;99.90;;;;;;4982910;28;20073;-34
2024/01/16 08:50:40;;;;;;;12.10;7.88;;;0.20;99.90;;;;;;4987197;28;20084;-34
2024/01/16 08:53:06;;;;;;;13.07;8.93;;;0.10;99.90;;;;;;4984680;28;20050;-31
2024/01/16 08:55:32;;;;;;;10.35;7.43;;;0.20;99.90;;;;;;4985050;28;20054;-32
2024/01/16 08:57:58;;;;;;;8.27;7.32;;;0.20;99.90;;;;;;4983689;28;20514;-32
2024/01/16 09:00:23;;;;;;;7.85;5.88;;;0.20;99.90;;;;;;4982690;28;20093;-33
2024/01/16 09:02:49;;;;;;;9.07;5.75;;;0.20;99.90;;;;;;4980769;28;20109;-32
2024/01/16 09:05:15;;;;;;;7.70;6.88;;;0.20;99.90;;;;;;4984045;28;20050;-32
2024/01/16 09:07:41;;;;;;;6.43;5.68;;;0.30;99.90;;;;;;4985352;28;20047;-33
2024/01/16 09:10:07;;;;;;;10.07;6.05;;;0.30;99.90;;;;;;4983946;28;20047;-33
2024/01/16 09:12:33;;;;;;;7.38;5.38;;;0.40;99.90;;;;;;4983460;28;20129;-33
2024/01/16 09:14:59;;;;;;;7.68;4.88;;;0.40;99.90;;;;;;4987558;28;20104;-33
2024/01/16 09:17:28;;;;;;;6.97;4.63;;;0.50;99.90;;;;;;4982470;28;20054;-33
2024/01/16 09:19:53;;;;;;;10.10;4.10;;;0.50;99.90;;;;;;4985996;28;20100;-33
2024/01/16 09:22:19;;;;;;;9.07;3.60;;;0.60;99.90;;;;;;4988552;28;20066;-33
2024/01/16 09:24:45;;;;;;;10.65;4.63;;;0.60;99.90;;;;;;4986173;28;20046;-33
2024/01/16 09:27:10;;;;;;;5.32;4.00;;;0.70;99.90;;;;;;4985431;28;20065;-33
2024/01/16 09:29:36;;;;;;;7.63;3.88;;;0.70;99.90;;;;;;4971809;28;20042;-33
2024/01/16 09:32:02;;;;;;;5.45;3.22;;;0.80;99.90;;;;;;4989139;28;20145;-33
2024/01/16 09:34:28;;;;;;;7.35;2.60;;;0.90;99.90;;;;;;4985399;28;20054;-33
2024/01/16 09:36:58;;;;;;;7.50;2.60;;;0.90;99.90;;;;;;4989062;28;20054;-33
2024/01/16 09:39:24;;;;;;;2.92;1.73;;;1.00;99.90;;;;;;4987003;28;20065;-33
2024/01/16 09:41:50;;;;;;;4.95;1.73;;;1.00;99.90;;;;;;4986941;28;20054;-33
2024/01/16 09:44:16;;;;;;;5.03;2.03;;;1.10;99.90;;;;;;4985583;28;20427;-33
2024/01/16 09:46:46;;;;;;;5.18;1.52;;;1.00;99.90;;;;;;4985098;28;20058;-33
2024/01/16 09:49:15;;;;;;;2.75;1.10;;;1.00;99.90;;;;;;4986383;28;20069;-33
2024/01/16 09:51:43;;;;;;;4.28;1.00;;;1.00;99.90;;;;;;4958144;28;20054;-33
2024/01/16 09:54:08;;;;;;;4.05;0.93;;;0.90;99.90;;;;;;4973774;28;20046;-33
2024/01/16 09:56:39;;;;;;;4.38;1.00;;;0.90;99.90;;;;;;4986513;28;20136;-33
2024/01/16 09:59:06;;;;;;;3.58;1.42;;;0.90;99.90;;;;;;4968034;28;20213;-33
2024/01/16 10:01:33;;;;;;;5.70;0.90;;;0.90;99.90;;;;;;4987855;28;20054;-33
2024/01/16 10:03:59;;;;;;;4.38;0.90;;;0.90;99.90;;;;;;4987013;28;20053;-33
2024/01/16 10:06:27;;;;;;;6.55;1.30;;;1.00;99.90;;;;;;4987141;28;20046;-33
2024/01/16 10:08:53;;;;;;;3.20;0.98;;;1.00;99.90;;;;;;4971278;28;20471;-33
2024/01/16 10:11:19;;;;;;;3.63;0.90;;;1.00;99.90;;;;;;4983712;28;20058;-33
2024/01/16 10:13:45;;;;;;;4.38;0.93;;;1.10;99.90;;;;;;4990909;28;20531;-34
2024/01/16 10:16:10;;;;;;;5.20;1.42;;;1.10;99.90;;;;;;4986401;28;20072;-34
2024/01/16 10:18:37;;;;;;;7.45;1.00;;;1.10;99.90;;;;;;4941145;28;21056;-34
2024/01/16 10:21:04;;;;;;;5.75;1.20;;;1.10;99.90;;;;;;4972258;28;20133;-34
2024/01/16 10:23:32;;;;;;;5.43;0.90;;;1.10;99.90;;;;;;4977523;28;20051;-34
2024/01/16 10:26:10;;;;;;;5.93;1.20;;;1.10;99.90;;;;;;4955058;28;20493;-34
2024/01/16 10:28:40;;;;;;;4.80;1.20;;;1.10;99.90;;;;;;4957840;28;20618;-33
2024/01/16 10:31:11;;;;;;;3.97;1.00;;;1.10;99.90;;;;;;4967737;28;20500;-34
2024/01/16 10:33:40;;;;;;;5.07;1.25;;;1.20;99.90;;;;;;4952106;28;20365;-33
2024/01/16 10:36:10;;;;;;;6.07;1.45;;;1.20;99.90;;;;;;4968867;28;20047;-34
2024/01/16 10:38:39;;;;;;;3.92;1.35;;;1.20;99.90;;;;;;4964529;28;20101;-34
2024/01/16 10:41:25;;;;;;;5.50;1.20;;;1.20;99.90;;;;;;4963663;28;20055;-34
2024/01/16 10:44:07;;;;;;;6.20;1.60;;;1.20;99.90;;;;;;4966313;28;20078;-34
2024/01/16 10:46:33;;;;;;;7.77;1.90;;;1.20;99.90;;;;;;4961368;28;20050;-34
2024/01/16 10:49:00;;;;;;;5.03;1.80;;;1.20;99.90;;;;;;4966600;28;20306;-34
2024/01/16 10:51:28;;;;;;;8.05;1.90;;;1.30;99.90;;;;;;4973969;28;20050;-34
2024/01/16 10:54:08;;;;;;;5.82;1.92;;;1.20;99.90;;;;;;4971140;28;20500;-34
2024/01/16 10:56:33;;;;;;;9.02;2.58;;;1.20;99.90;;;;;;4971048;28;20097;-33
2024/01/16 10:59:21;;;;;;;6.30;2.10;;;1.20;99.90;;;;;;4959243;28;20047;-34
2024/01/16 11:01:54;;;;;;;8.55;2.33;;;1.20;99.90;;;;;;4951009;28;20572;-34
2024/01/16 11:04:23;;;;;;;7.00;2.53;;;1.20;99.90;;;;;;4959919;28;20050;-34
2024/01/16 11:06:52;;;;;;;4.00;2.05;;;1.10;99.90;;;;;;4947247;28;20146;-33
2024/01/16 11:09:18;;;;;;;5.15;2.60;;;1.20;99.90;;;;;;4968127;28;20587;-32
2024/01/16 11:11:46;;;;;;;7.03;2.58;;;1.20;99.90;;;;;;4962099;28;20054;-32
2024/01/16 11:14:15;;;;;;;6.82;2.65;;;1.20;99.90;;;;;;4967090;28;20546;-32
2024/01/16 11:16:42;;;;;;;7.25;2.90;;;1.20;99.90;;;;;;4959810;28;20053;-33
2024/01/16 11:19:11;;;;;;;7.10;3.75;;;1.20;99.90;;;;;;4968993;28;20050;-34
2024/01/16 11:21:39;;;;;;;6.57;3.97;;;1.20;99.90;;;;;;4962015;28;20516;-34
2024/01/16 11:24:05;;;;;;;10.63;5.00;;;1.20;99.90;;;;;;4970583;28;20062;-34
2024/01/16 11:26:33;;;;;;;11.52;5.80;;;1.20;99.90;;;;;;4984677;28;20051;-34
2024/01/16 11:29:00;;;;;;;10.98;5.00;;;1.20;99.90;;;;;;4984015;28;20057;-34
2024/01/16 11:31:30;;;;;;;9.32;5.22;;;1.30;99.90;;;;;;4984117;28;20058;-34
2024/01/16 11:33:56;;;;;;;12.63;6.10;;;1.30;99.90;;;;;;4986762;28;20054;-33
2024/01/16 11:36:57;;;;;;;9.82;5.85;;;1.30;99.90;;;;;;4971420;28;20164;-34
2024/01/16 11:39:25;;;;;;;11.68;6.30;;;1.30;99.90;;;;;;4986099;28;20534;-34
2024/01/16 11:41:58;;;;;;;13.43;6.20;;;1.20;99.90;;;;;;4974032;28;20069;-33
2024/01/16 11:44:43;;;;;;;10.68;5.93;;;1.20;99.90;;;;;;4983625;28;20058;-33
2024/01/16 11:47:14;;;;;;;13.32;6.13;;;1.30;99.90;;;;;;4983857;28;20061;-34
2024/01/16 11:49:41;;;;;;;12.50;6.38;;;1.30;99.90;;;;;;4983062;28;20061;-34
2024/01/16 11:52:07;;;;;;;10.85;6.18;;;1.30;99.90;;;;;;4982931;28;20042;-33
2024/01/16 11:54:34;;;;;;;9.20;5.85;;;1.40;99.90;;;;;;4986783;28;20093;-33
2024/01/16 11:57:18;;;;;;;10.93;6.47;;;1.40;99.90;;;;;;4985665;28;20061;-34
2024/01/16 11:59:50;;;;;;;11.30;6.68;;;1.40;99.90;;;;;;4953509;28;20145;-34
2024/01/16 12:02:23;;;;;;;10.60;6.23;;;1.40;99.90;;;;;;4979738;28;20432;-34
2024/01/16 12:04:56;;;;;;;10.73;6.25;;;1.40;99.90;;;;;;4982202;28;20064;-34
2024/01/16 12:07:23;;;;;;;12.40;6.25;;;1.50;99.90;;;;;;4981649;28;20068;-34
2024/01/16 12:09:48;;;;;;;10.82;6.30;;;1.50;99.90;;;;;;4981901;28;20406;-34
2024/01/16 12:12:16;;;;;;;9.13;6.40;;;1.50;99.90;;;;;;4987388;28;20061;-34
2024/01/16 12:14:52;;;;;;;10.45;6.30;;;1.50;99.90;;;;;;4988334;28;20116;-33
2024/01/16 12:17:20;;;;;;;10.77;6.50;;;1.50;99.90;;;;;;4965643;28;20046;-34
2024/01/16 12:19:46;;;;;;;12.80;8.15;;;1.50;99.90;;;;;;4988114;28;20076;-34
2024/01/16 12:22:16;;;;;;;9.40;7.55;;;1.50;99.90;;;;;;4983072;28;20172;-34
2024/01/16 12:24:42;;;;;;;9.75;8.25;;;1.50;99.90;;;;;;4982237;28;20575;-34
2024/01/16 12:27:08;;;;;;;11.63;8.48;;;1.50;99.90;;;;;;4980250;28;20054;-34
2024/01/16 12:29:34;;;;;;;12.45;10.82;;;1.50;99.90;;;;;;4984734;28;20096;-34
2024/01/16 12:32:14;;;;;;;11.00;9.93;;;1.50;99.90;;;;;;4992738;28;20484;-34
2024/01/16 12:34:45;;;;;;;13.32;11.95;;;1.60;99.90;;;;;;4975679;28;20060;-34
2024/01/16 12:37:12;;;;;;;11.77;10.45;;;1.60;99.90;;;;;;4991217;28;20050;-34
2024/01/16 12:39:39;;;;;;;13.18;11.98;;;1.70;99.90;;;;;;4987255;28;20509;-34
2024/01/16 12:42:05;;;;;;;13.40;12.25;;;1.70;99.90;;;;;;4985621;28;20062;-34